Time;durP1;ratioP1;P1;durP2;ratioP2;P2;SDS_P1;SDS_P2;PMS_P1;PMS_P2;Temp;Humidity;BMP_temperature;BMP_pressure;BME280_temperature;BME280_humidity;BME280_pressure;Samples;Min_cycle;Max_cycle;Signal;HPM_P1;HPM_P2
2024/01/06 00:02:14;;;;;;;8.55;5.50;;;5.40;1.00;;;;;;7383576;19;20029;-68
2024/01/06 00:04:44;;;;;;;10.07;5.15;;;5.40;1.00;;;;;;7382478;19;20021;-69
2024/01/06 00:07:14;;;;;;;7.28;5.03;;;5.40;1.00;;;;;;7383476;19;20010;-69
2024/01/06 00:09:44;;;;;;;10.75;5.63;;;5.40;1.00;;;;;;7384558;19;20018;-69
2024/01/06 00:12:14;;;;;;;8.52;5.40;;;5.40;1.00;;;;;;7399544;19;20036;-69
2024/01/06 00:14:45;;;;;;;8.98;5.10;;;5.30;1.00;;;;;;7388302;19;20618;-69
2024/01/06 00:17:19;;;;;;;7.63;4.95;;;5.30;1.00;;;;;;7383306;19;20470;-70
2024/01/06 00:19:51;;;;;;;9.02;3.90;;;5.30;1.00;;;;;;7381759;19;20011;-71
2024/01/06 00:22:21;;;;;;;7.75;4.53;;;5.30;1.00;;;;;;7384598;19;20011;-69
2024/01/06 00:24:51;;;;;;;7.38;3.97;;;5.30;1.00;;;;;;7379662;19;20010;-70
2024/01/06 00:27:21;;;;;;;7.93;4.13;;;5.30;1.00;;;;;;7378872;19;20417;-69
2024/01/06 00:29:51;;;;;;;6.82;3.90;;;5.30;1.00;;;;;;7381157;19;20017;-70
2024/01/06 00:32:24;;;;;;;6.72;3.83;;;5.30;1.00;;;;;;7383367;19;20018;-71
2024/01/06 00:34:54;;;;;;;6.20;3.60;;;5.30;1.00;;;;;;7382261;19;20069;-70
2024/01/06 00:37:24;;;;;;;6.65;3.78;;;5.30;1.00;;;;;;7383838;19;20006;-71
2024/01/06 00:39:54;;;;;;;10.32;4.35;;;5.30;1.00;;;;;;7381264;19;20007;-70
2024/01/06 00:42:24;;;;;;;7.45;4.22;;;5.30;1.00;;;;;;7383164;19;20010;-70
2024/01/06 00:44:54;;;;;;;7.13;4.20;;;5.30;1.00;;;;;;7383758;19;20035;-70
2024/01/06 00:47:27;;;;;;;5.65;3.90;;;5.30;1.00;;;;;;7382380;19;20050;-70
2024/01/06 00:49:57;;;;;;;5.32;3.92;;;5.30;1.00;;;;;;7376073;19;20006;-70
2024/01/06 00:52:28;;;;;;;10.48;4.18;;;5.30;1.00;;;;;;7378304;19;20042;-70
2024/01/06 00:55:00;;;;;;;5.93;3.85;;;5.30;1.00;;;;;;7365627;19;20035;-70
2024/01/06 00:57:35;;;;;;;6.90;3.70;;;5.30;1.00;;;;;;7329642;19;20077;-71
2024/01/06 01:00:12;;;;;;;9.18;3.95;;;5.30;1.00;;;;;;7367061;19;20007;-70
2024/01/06 01:02:47;;;;;;;6.68;2.97;;;5.30;1.00;;;;;;7368479;19;20010;-71
2024/01/06 01:05:18;;;;;;;7.88;3.17;;;5.30;1.00;;;;;;7379041;19;20046;-70
2024/01/06 01:07:48;;;;;;;4.85;3.03;;;5.30;1.00;;;;;;7379393;19;20007;-70
2024/01/06 01:10:18;;;;;;;6.07;2.83;;;5.30;1.00;;;;;;7378272;19;20014;-68
2024/01/06 01:12:48;;;;;;;6.28;2.97;;;5.40;1.00;;;;;;7379213;19;20027;-70
2024/01/06 01:15:18;;;;;;;6.40;2.50;;;5.30;1.00;;;;;;7381044;19;20010;-70
2024/01/06 01:17:50;;;;;;;4.30;2.20;;;5.30;1.00;;;;;;7379484;19;20344;-70
2024/01/06 01:20:21;;;;;;;5.78;2.20;;;5.40;1.00;;;;;;7381762;19;20014;-70
2024/01/06 01:22:51;;;;;;;5.45;2.08;;;5.30;1.00;;;;;;7381253;19;20026;-70
2024/01/06 01:25:21;;;;;;;5.28;2.40;;;5.30;1.00;;;;;;7380709;19;20011;-70
2024/01/06 01:27:51;;;;;;;5.22;2.35;;;5.30;1.00;;;;;;7381093;19;20467;-70
2024/01/06 01:30:21;;;;;;;5.65;2.58;;;5.30;1.00;;;;;;7380922;19;20011;-69
2024/01/06 01:32:54;;;;;;;3.92;1.88;;;5.30;1.00;;;;;;7381611;19;20014;-70
2024/01/06 01:35:24;;;;;;;4.90;2.30;;;5.30;1.00;;;;;;7381313;19;20416;-70
2024/01/06 01:37:54;;;;;;;5.35;2.50;;;5.30;1.00;;;;;;7380612;19;20014;-70
2024/01/06 01:40:24;;;;;;;6.00;2.05;;;5.30;1.00;;;;;;7380902;19;19999;-70
2024/01/06 01:42:54;;;;;;;5.90;2.30;;;5.30;1.00;;;;;;7380577;19;20026;-70
2024/01/06 01:45:24;;;;;;;4.90;2.20;;;5.30;1.00;;;;;;7377647;19;20007;-70
2024/01/06 01:47:57;;;;;;;5.10;2.25;;;5.30;1.00;;;;;;7380021;19;20046;-70
2024/01/06 01:50:30;;;;;;;7.45;2.47;;;5.30;1.00;;;;;;7377182;19;20428;-70
2024/01/06 01:53:01;;;;;;;4.47;2.42;;;5.30;1.00;;;;;;7379989;19;20002;-70
2024/01/06 01:55:31;;;;;;;7.28;2.22;;;5.30;1.00;;;;;;7379009;19;20015;-70
2024/01/06 01:58:01;;;;;;;5.22;2.00;;;5.40;1.00;;;;;;7379270;19;20010;-67
2024/01/06 02:00:31;;;;;;;5.95;1.98;;;5.40;1.00;;;;;;7377910;19;20755;-68
2024/01/06 02:03:07;;;;;;;3.40;1.70;;;5.40;1.00;;;;;;7380125;19;20018;-69
2024/01/06 02:05:37;;;;;;;3.83;1.77;;;5.40;1.00;;;;;;7377955;19;20006;-69
2024/01/06 02:08:08;;;;;;;7.53;1.98;;;5.40;1.00;;;;;;7380630;19;20015;-70
2024/01/06 02:10:38;;;;;;;7.50;2.25;;;5.40;1.00;;;;;;7378224;19;20039;-69
2024/01/06 02:13:12;;;;;;;6.95;2.20;;;5.40;1.00;;;;;;7379468;19;20029;-71
2024/01/06 02:15:42;;;;;;;6.95;1.90;;;5.40;1.00;;;;;;7372115;19;20413;-69
2024/01/06 02:18:15;;;;;;;7.18;2.22;;;5.40;1.00;;;;;;7378987;19;20478;-70
2024/01/06 02:20:46;;;;;;;6.07;1.73;;;5.40;1.00;;;;;;7377163;19;20010;-69
2024/01/06 02:23:19;;;;;;;5.68;1.70;;;5.40;1.00;;;;;;7378100;19;20036;-70
2024/01/06 02:25:49;;;;;;;4.40;1.67;;;5.40;1.00;;;;;;7374515;19;20363;-70
2024/01/06 02:28:19;;;;;;;5.88;1.98;;;5.40;1.00;;;;;;7376264;19;20017;-69
2024/01/06 02:30:49;;;;;;;13.82;2.28;;;5.40;1.00;;;;;;7374949;19;20352;-70
2024/01/06 02:33:23;;;;;;;7.15;1.90;;;5.40;1.00;;;;;;7376845;19;20443;-71
2024/01/06 02:35:54;;;;;;;7.38;2.22;;;5.40;1.00;;;;;;7377768;19;20011;-70
2024/01/06 02:38:27;;;;;;;4.47;1.67;;;5.50;1.00;;;;;;7376671;19;20017;-69
2024/01/06 02:40:57;;;;;;;7.38;1.98;;;5.40;1.00;;;;;;7372924;19;20081;-71
2024/01/06 02:43:27;;;;;;;7.15;2.53;;;5.40;1.00;;;;;;7380651;19;20018;-70
2024/01/06 02:45:57;;;;;;;6.70;2.13;;;5.40;1.00;;;;;;7393673;19;20014;-70
2024/01/06 02:48:29;;;;;;;3.85;2.15;;;5.40;1.00;;;;;;7387260;19;20032;-70
2024/01/06 02:51:00;;;;;;;6.43;1.75;;;5.40;1.00;;;;;;7378976;19;20060;-70
2024/01/06 02:53:32;;;;;;;9.98;1.90;;;5.40;1.00;;;;;;7378421;19;20070;-70
2024/01/06 02:56:02;;;;;;;6.13;1.70;;;5.40;1.00;;;;;;7378423;19;20033;-70
2024/01/06 02:58:32;;;;;;;8.68;2.22;;;5.40;1.00;;;;;;7377251;19;20011;-69
2024/01/06 03:01:02;;;;;;;5.57;1.50;;;5.40;1.00;;;;;;7377956;19;20054;-70
2024/01/06 03:03:33;;;;;;;3.90;1.55;;;5.40;1.00;;;;;;7377112;19;20014;-70
2024/01/06 03:06:03;;;;;;;5.78;1.58;;;5.40;1.00;;;;;;7376931;19;20015;-70
2024/01/06 03:08:37;;;;;;;5.90;1.83;;;5.30;1.00;;;;;;7375579;19;20010;-69
2024/01/06 03:11:07;;;;;;;6.55;1.50;;;5.30;1.00;;;;;;7378041;19;20463;-69
2024/01/06 03:13:37;;;;;;;4.47;1.65;;;5.30;1.00;;;;;;7376691;19;20491;-70
2024/01/06 03:16:07;;;;;;;6.95;1.83;;;5.20;1.00;;;;;;7377246;19;20011;-70
2024/01/06 03:18:37;;;;;;;3.55;1.70;;;5.20;1.00;;;;;;7375960;19;20010;-69
2024/01/06 03:21:19;;;;;;;6.00;1.52;;;5.20;1.00;;;;;;7378460;19;20238;-70
2024/01/06 03:23:55;;;;;;;8.30;1.80;;;5.20;1.00;;;;;;7376674;19;20132;-69
2024/01/06 03:26:25;;;;;;;8.32;1.80;;;5.20;1.00;;;;;;7378604;19;20007;-70
2024/01/06 03:28:58;;;;;;;2.83;1.30;;;5.20;1.00;;;;;;7375344;19;20033;-70
2024/01/06 03:31:28;;;;;;;4.22;1.30;;;5.20;1.00;;;;;;7374261;19;20035;-69
2024/01/06 03:33:58;;;;;;;5.70;1.85;;;5.20;1.00;;;;;;7377613;19;20021;-69
2024/01/06 03:36:28;;;;;;;4.93;1.50;;;5.20;1.00;;;;;;7377295;19;20526;-69
2024/01/06 03:39:02;;;;;;;2.88;1.40;;;5.20;1.00;;;;;;7375621;19;20026;-68
2024/01/06 03:41:32;;;;;;;3.40;1.48;;;5.20;1.00;;;;;;7377969;19;20010;-68
2024/01/06 03:44:02;;;;;;;3.80;1.48;;;5.20;1.00;;;;;;7377127;19;20010;-69
2024/01/06 03:46:32;;;;;;;5.85;1.40;;;5.20;1.00;;;;;;7377108;19;20800;-69
2024/01/06 03:49:02;;;;;;;5.65;1.70;;;5.20;1.00;;;;;;7376123;19;20039;-69
2024/01/06 03:51:32;;;;;;;8.32;2.15;;;5.20;1.00;;;;;;7377891;19;20010;-69
2024/01/06 03:54:05;;;;;;;7.88;1.67;;;5.20;1.00;;;;;;7375935;19;20010;-70
2024/01/06 03:56:35;;;;;;;5.72;1.60;;;5.10;1.00;;;;;;7376406;19;20007;-68
2024/01/06 03:59:05;;;;;;;7.60;1.90;;;5.10;1.00;;;;;;7375975;19;20082;-69
2024/01/06 04:01:35;;;;;;;6.45;1.90;;;5.10;1.00;;;;;;7371295;19;20035;-69
2024/01/06 04:04:06;;;;;;;2.15;1.70;;;5.10;1.00;;;;;;7375210;19;20014;-69
2024/01/06 04:06:36;;;;;;;5.82;2.08;;;5.10;1.00;;;;;;7374974;19;20367;-69
2024/01/06 04:09:09;;;;;;;7.22;1.85;;;5.10;1.00;;;;;;7374798;19;20010;-70
2024/01/06 04:11:39;;;;;;;6.90;1.95;;;5.10;1.00;;;;;;7376598;19;20010;-69
2024/01/06 04:14:09;;;;;;;4.88;1.90;;;5.10;1.00;;;;;;7374959;19;20462;-69
2024/01/06 04:16:39;;;;;;;6.05;2.00;;;5.00;1.00;;;;;;7375409;19;20527;-70
2024/01/06 04:19:11;;;;;;;10.88;2.17;;;5.00;1.00;;;;;;7374976;19;20010;-70
2024/01/06 04:21:41;;;;;;;6.10;1.88;;;5.00;1.00;;;;;;7375483;19;20007;-69
2024/01/06 04:24:13;;;;;;;7.63;1.42;;;4.90;1.00;;;;;;7375919;19;20006;-69
2024/01/06 04:26:44;;;;;;;5.95;1.80;;;4.90;1.00;;;;;;7375533;19;20044;-70
2024/01/06 04:29:15;;;;;;;6.45;2.05;;;4.90;1.00;;;;;;7376457;19;20011;-70
2024/01/06 04:31:45;;;;;;;5.60;1.60;;;4.90;1.00;;;;;;7371561;19;20044;-70
2024/01/06 04:34:15;;;;;;;5.18;1.58;;;4.90;1.00;;;;;;7375573;19;20014;-70
2024/01/06 04:36:45;;;;;;;5.57;1.80;;;4.90;1.00;;;;;;7375849;19;20010;-69
2024/01/06 04:39:17;;;;;;;7.57;2.00;;;4.80;1.00;;;;;;7374994;19;20031;-70
2024/01/06 04:41:47;;;;;;;8.00;2.40;;;4.80;1.00;;;;;;7374934;19;20036;-69
2024/01/06 04:44:17;;;;;;;8.55;2.03;;;4.80;1.00;;;;;;7380912;19;20041;-70
2024/01/06 04:46:47;;;;;;;5.53;1.92;;;4.80;1.00;;;;;;7382984;19;20033;-67
2024/01/06 04:49:17;;;;;;;7.07;2.10;;;4.80;1.00;;;;;;7382619;19;20030;-69
2024/01/06 04:51:47;;;;;;;8.23;2.10;;;4.70;1.00;;;;;;7382554;19;20029;-70
2024/01/06 04:54:20;;;;;;;4.72;1.90;;;4.70;1.00;;;;;;7383029;19;20089;-69
2024/01/06 04:56:50;;;;;;;7.88;2.08;;;4.70;1.00;;;;;;7382629;19;20017;-70
2024/01/06 04:59:20;;;;;;;4.65;1.92;;;4.70;1.00;;;;;;7382083;19;20010;-69
2024/01/06 05:01:51;;;;;;;4.22;1.92;;;4.70;1.00;;;;;;7378011;19;20483;-68
2024/01/06 05:04:21;;;;;;;6.28;1.80;;;4.70;1.00;;;;;;7382116;19;20007;-70
2024/01/06 05:06:52;;;;;;;7.97;2.47;;;4.70;1.00;;;;;;7383113;19;20006;-70
2024/01/06 05:09:25;;;;;;;4.30;1.70;;;4.70;1.00;;;;;;7382436;19;20396;-68
2024/01/06 05:11:55;;;;;;;6.07;2.13;;;4.70;1.00;;;;;;7383016;19;20397;-68
2024/01/06 05:14:25;;;;;;;5.75;2.88;;;4.70;1.00;;;;;;7382586;19;20007;-70
2024/01/06 05:16:54;;;;;;;6.95;2.30;;;4.70;1.00;;;;;;7382495;19;20035;-68
2024/01/06 05:19:24;;;;;;;3.30;1.70;;;4.70;1.00;;;;;;7388492;19;20025;-68
2024/01/06 05:21:55;;;;;;;6.85;2.40;;;4.60;1.00;;;;;;7396531;19;20013;-69
2024/01/06 05:24:28;;;;;;;4.40;2.10;;;4.70;1.00;;;;;;7379926;19;20006;-68
2024/01/06 05:26:58;;;;;;;11.60;2.75;;;4.70;1.00;;;;;;7379616;19;20011;-71
2024/01/06 05:29:28;;;;;;;5.85;2.75;;;4.70;1.00;;;;;;7380299;19;20017;-70
2024/01/06 05:31:58;;;;;;;6.53;2.70;;;4.70;1.00;;;;;;7380580;19;20708;-69
2024/01/06 05:34:28;;;;;;;6.53;3.13;;;4.70;1.00;;;;;;7378857;19;20006;-70
2024/01/06 05:36:58;;;;;;;7.18;3.30;;;4.60;1.00;;;;;;7381681;19;20502;-70
2024/01/06 05:39:31;;;;;;;6.78;2.80;;;4.60;1.00;;;;;;7379340;19;20010;-70
2024/01/06 05:42:01;;;;;;;6.05;2.13;;;4.60;1.00;;;;;;7381261;19;20006;-69
2024/01/06 05:44:31;;;;;;;4.82;2.63;;;4.50;1.00;;;;;;7380170;19;20027;-69
2024/01/06 05:47:01;;;;;;;6.00;2.50;;;4.50;1.00;;;;;;7380823;19;20014;-69
2024/01/06 05:49:31;;;;;;;8.45;2.90;;;4.50;1.00;;;;;;7380120;19;20035;-69
2024/01/06 05:52:01;;;;;;;6.57;2.58;;;4.50;1.00;;;;;;7380285;19;20006;-69
2024/01/06 05:54:33;;;;;;;8.57;3.05;;;4.50;1.00;;;;;;7378647;19;20010;-70
2024/01/06 05:57:03;;;;;;;7.00;2.95;;;4.50;1.00;;;;;;7380605;19;20010;-70
2024/01/06 05:59:35;;;;;;;10.95;3.58;;;4.50;1.00;;;;;;7380052;19;20494;-69
2024/01/06 06:02:05;;;;;;;10.25;3.72;;;4.50;1.00;;;;;;7380974;19;20028;-69
2024/01/06 06:04:35;;;;;;;6.65;3.38;;;4.50;1.00;;;;;;7380010;19;20475;-69
2024/01/06 06:07:06;;;;;;;7.20;2.80;;;4.50;1.00;;;;;;7380470;19;20016;-68
2024/01/06 06:09:40;;;;;;;9.32;3.03;;;4.50;1.00;;;;;;7376612;19;20037;-69
2024/01/06 06:12:10;;;;;;;6.80;2.78;;;4.50;1.00;;;;;;7381466;19;20006;-69
2024/01/06 06:14:40;;;;;;;14.07;3.13;;;4.50;1.00;;;;;;7379690;19;20021;-69
2024/01/06 06:17:10;;;;;;;8.73;2.95;;;4.50;1.00;;;;;;7380357;19;20007;-69
2024/01/06 06:19:40;;;;;;;12.63;2.80;;;4.50;1.00;;;;;;7380379;19;20010;-69
2024/01/06 06:22:10;;;;;;;11.50;3.10;;;4.50;1.00;;;;;;7380266;19;20772;-69
2024/01/06 06:24:43;;;;;;;8.27;2.85;;;4.60;1.00;;;;;;7379584;19;20494;-69
2024/01/06 06:27:13;;;;;;;7.85;3.30;;;4.60;1.00;;;;;;7380148;19;20488;-68
2024/01/06 06:29:43;;;;;;;8.68;3.35;;;4.60;1.00;;;;;;7379704;19;20018;-69
2024/01/06 06:32:13;;;;;;;6.40;3.05;;;4.60;1.00;;;;;;7380237;19;20057;-70
2024/01/06 06:34:43;;;;;;;8.75;2.90;;;4.70;1.00;;;;;;7379938;19;20590;-70
2024/01/06 06:37:13;;;;;;;15.32;3.70;;;4.60;1.00;;;;;;7380620;19;20087;-68
2024/01/06 06:39:46;;;;;;;6.57;2.90;;;4.70;1.00;;;;;;7380714;19;20026;-70
2024/01/06 06:42:16;;;;;;;4.20;2.65;;;4.70;1.00;;;;;;7380725;19;20017;-70
2024/01/06 06:44:46;;;;;;;4.15;2.70;;;4.70;1.00;;;;;;7379542;19;20014;-67
2024/01/06 06:47:16;;;;;;;5.60;2.90;;;4.70;1.00;;;;;;7378006;19;20018;-70
2024/01/06 06:49:46;;;;;;;8.43;3.15;;;4.70;1.00;;;;;;7378683;19;20015;-70
2024/01/06 06:52:16;;;;;;;6.40;3.33;;;4.80;1.00;;;;;;7378214;19;20014;-70
2024/01/06 06:54:49;;;;;;;4.47;3.10;;;4.80;1.00;;;;;;7375416;19;20006;-69
2024/01/06 06:57:19;;;;;;;5.25;2.70;;;4.80;1.00;;;;;;7378155;19;20090;-68
2024/01/06 06:59:49;;;;;;;4.97;2.92;;;4.80;1.00;;;;;;7378302;19;20007;-69
2024/01/06 07:02:19;;;;;;;4.32;2.70;;;4.90;1.00;;;;;;7379499;19;20023;-67
2024/01/06 07:04:49;;;;;;;5.30;3.05;;;4.80;1.00;;;;;;7377656;19;20014;-70
2024/01/06 07:07:19;;;;;;;6.30;3.10;;;4.90;1.00;;;;;;7375810;19;20018;-69
2024/01/06 07:09:52;;;;;;;5.43;2.83;;;4.90;1.00;;;;;;7378701;19;20014;-68
2024/01/06 07:12:22;;;;;;;5.28;3.10;;;4.90;1.00;;;;;;7378896;19;20475;-68
2024/01/06 07:14:52;;;;;;;3.25;2.75;;;5.00;1.00;;;;;;7378183;19;20032;-68
2024/01/06 07:17:22;;;;;;;5.97;3.10;;;5.00;1.00;;;;;;7378247;19;20010;-68
2024/01/06 07:19:52;;;;;;;6.60;3.60;;;5.00;1.00;;;;;;7378637;19;20018;-69
2024/01/06 07:22:22;;;;;;;4.13;2.70;;;5.00;1.00;;;;;;7377576;19;20007;-68
2024/01/06 07:24:55;;;;;;;4.82;2.70;;;5.00;1.00;;;;;;7377398;19;20475;-69
2024/01/06 07:27:25;;;;;;;4.47;2.75;;;5.00;1.00;;;;;;7378597;19;20439;-69
2024/01/06 07:29:55;;;;;;;4.30;2.92;;;5.00;1.00;;;;;;7378116;19;20011;-69
2024/01/06 07:32:25;;;;;;;5.25;2.88;;;5.10;1.00;;;;;;7379846;19;20015;-68
2024/01/06 07:34:56;;;;;;;6.20;3.20;;;5.10;1.00;;;;;;7378311;19;20010;-68
2024/01/06 07:37:26;;;;;;;4.97;3.08;;;5.10;1.00;;;;;;7378941;19;20011;-69
2024/01/06 07:39:58;;;;;;;5.78;2.85;;;5.10;1.00;;;;;;7378021;19;20014;-70
2024/01/06 07:42:28;;;;;;;4.57;3.13;;;5.20;1.00;;;;;;7376376;19;19998;-70
2024/01/06 07:44:58;;;;;;;3.83;2.83;;;5.20;1.00;;;;;;7377528;19;20795;-71
2024/01/06 07:47:29;;;;;;;4.57;2.95;;;5.20;1.00;;;;;;7377123;19;20006;-70
2024/01/06 07:49:59;;;;;;;3.30;2.75;;;5.20;1.00;;;;;;7377637;19;20018;-69
2024/01/06 07:52:29;;;;;;;6.30;3.10;;;5.20;1.00;;;;;;7379925;19;20031;-69
2024/01/06 07:55:03;;;;;;;4.90;2.88;;;5.20;1.00;;;;;;7392668;19;20033;-70
2024/01/06 07:57:33;;;;;;;4.28;3.17;;;5.20;1.00;;;;;;7385528;19;20019;-69
2024/01/06 08:00:03;;;;;;;5.25;3.28;;;5.20;1.00;;;;;;7371043;19;20015;-69
2024/01/06 08:02:40;;;;;;;4.55;3.38;;;5.20;1.00;;;;;;7376202;19;20014;-69
2024/01/06 08:05:11;;;;;;;4.45;3.60;;;5.20;1.00;;;;;;7374453;19;20493;-70
2024/01/06 08:07:41;;;;;;;6.68;3.40;;;5.20;1.00;;;;;;7376464;19;20036;-69
2024/01/06 08:10:14;;;;;;;4.35;3.15;;;5.20;1.00;;;;;;7374211;19;20100;-70
2024/01/06 08:12:44;;;;;;;5.07;2.90;;;5.20;1.00;;;;;;7376414;19;20018;-69
2024/01/06 08:15:14;;;;;;;4.95;3.17;;;5.30;1.00;;;;;;7375859;19;20014;-69
2024/01/06 08:17:44;;;;;;;5.70;2.95;;;5.30;1.00;;;;;;7376351;19;20494;-69
2024/01/06 08:20:14;;;;;;;3.95;3.15;;;5.30;1.00;;;;;;7382122;19;20014;-69
2024/01/06 08:22:44;;;;;;;4.47;3.10;;;5.30;1.00;;;;;;7383561;19;20507;-69
2024/01/06 08:25:17;;;;;;;3.88;2.83;;;5.30;1.00;;;;;;7381971;19;20094;-69
2024/01/06 08:27:47;;;;;;;5.10;3.08;;;5.40;1.00;;;;;;7384043;19;20019;-69
2024/01/06 08:30:17;;;;;;;3.45;3.15;;;5.40;1.00;;;;;;7381265;19;20024;-69
2024/01/06 08:32:47;;;;;;;5.07;3.22;;;5.40;1.00;;;;;;7383246;19;20089;-69
2024/01/06 08:35:19;;;;;;;5.60;2.83;;;5.40;1.00;;;;;;7381274;19;20007;-69
2024/01/06 08:37:49;;;;;;;5.53;3.42;;;5.40;1.00;;;;;;7382486;19;20594;-69
2024/01/06 08:40:21;;;;;;;3.38;2.97;;;5.40;1.00;;;;;;7380833;19;20017;-69
2024/01/06 08:42:52;;;;;;;3.92;2.50;;;5.50;1.00;;;;;;7383303;19;20002;-68
2024/01/06 08:45:22;;;;;;;3.85;2.55;;;5.40;1.00;;;;;;7382747;19;20006;-69
2024/01/06 08:47:52;;;;;;;4.03;2.92;;;5.40;1.00;;;;;;7380868;19;20022;-69
2024/01/06 08:50:22;;;;;;;3.63;2.78;;;5.40;1.00;;;;;;7383009;19;20039;-69
2024/01/06 08:52:52;;;;;;;3.80;2.92;;;5.40;1.00;;;;;;7381660;19;20036;-69
2024/01/06 08:55:25;;;;;;;5.63;3.50;;;5.30;1.00;;;;;;7381864;19;20017;-69
2024/01/06 08:57:55;;;;;;;4.25;3.15;;;5.40;1.00;;;;;;7379294;19;20426;-69
2024/01/06 09:00:26;;;;;;;4.25;3.55;;;5.30;1.00;;;;;;7381693;19;20014;-70
2024/01/06 09:02:56;;;;;;;4.45;3.75;;;5.20;1.00;;;;;;7382322;19;20018;-69
2024/01/06 09:05:26;;;;;;;4.00;3.65;;;5.30;1.00;;;;;;7382704;19;20014;-69
2024/01/06 09:07:56;;;;;;;4.18;3.67;;;5.40;1.00;;;;;;7382005;19;20014;-70
2024/01/06 09:10:29;;;;;;;5.15;4.65;;;5.50;1.00;;;;;;7381620;19;20458;-69
2024/01/06 09:13:00;;;;;;;8.05;4.07;;;5.50;1.00;;;;;;7379951;19;20022;-71
2024/01/06 09:15:30;;;;;;;6.57;4.75;;;5.50;1.00;;;;;;7375974;19;20614;-73
2024/01/06 09:18:00;;;;;;;7.57;5.07;;;5.60;1.00;;;;;;7380593;19;20081;-69
2024/01/06 09:20:30;;;;;;;6.03;4.60;;;5.70;1.00;;;;;;7381106;19;20527;-70
2024/01/06 09:23:00;;;;;;;8.95;4.40;;;5.70;1.00;;;;;;7381074;19;20054;-70
2024/01/06 09:25:35;;;;;;;5.32;3.85;;;5.70;1.00;;;;;;7380767;19;20014;-72
2024/01/06 09:28:05;;;;;;;3.60;3.03;;;5.90;1.00;;;;;;7380542;19;20014;-70
2024/01/06 09:30:37;;;;;;;4.63;3.15;;;5.50;1.00;;;;;;7378915;19;20006;-70
2024/01/06 09:33:07;;;;;;;5.72;3.72;;;5.60;1.00;;;;;;7381766;19;20032;-70
2024/01/06 09:35:38;;;;;;;6.57;3.50;;;5.70;1.00;;;;;;7381751;19;20836;-70
2024/01/06 09:38:08;;;;;;;4.90;3.92;;;5.60;1.00;;;;;;7380120;19;20011;-71
2024/01/06 09:40:45;;;;;;;6.97;4.15;;;5.70;1.00;;;;;;7380750;19;20018;-71
2024/01/06 09:43:15;;;;;;;3.47;2.95;;;5.70;1.00;;;;;;7379109;19;20081;-70
2024/01/06 09:45:49;;;;;;;3.90;3.40;;;5.70;1.00;;;;;;7379969;19;20014;-71
2024/01/06 09:48:20;;;;;;;5.78;3.97;;;5.70;1.00;;;;;;7378609;19;20015;-70
2024/01/06 09:50:52;;;;;;;3.42;3.13;;;5.70;1.00;;;;;;7379885;19;20822;-70
2024/01/06 09:53:22;;;;;;;4.88;3.53;;;5.70;1.00;;;;;;7379824;19;20573;-71
2024/01/06 09:55:55;;;;;;;4.25;3.28;;;5.70;1.00;;;;;;7379545;19;20082;-70
2024/01/06 09:58:29;;;;;;;4.53;3.30;;;5.50;1.00;;;;;;7381216;19;20013;-70
2024/01/06 10:01:00;;;;;;;5.35;3.67;;;5.50;1.00;;;;;;7380630;19;20025;-70
2024/01/06 10:03:30;;;;;;;4.25;3.13;;;5.40;1.00;;;;;;7373493;19;20609;-70
2024/01/06 10:06:03;;;;;;;5.40;3.47;;;5.40;1.00;;;;;;7379392;19;20503;-69
2024/01/06 10:08:34;;;;;;;4.97;3.90;;;5.40;1.00;;;;;;7378295;19;20014;-68
2024/01/06 10:11:07;;;;;;;6.15;3.67;;;5.50;1.00;;;;;;7380493;19;20019;-68
2024/01/06 10:13:38;;;;;;;4.70;3.75;;;5.40;1.00;;;;;;7379819;19;20014;-69
2024/01/06 10:16:08;;;;;;;5.15;3.92;;;5.50;1.00;;;;;;7378944;19;20010;-69
2024/01/06 10:18:39;;;;;;;4.90;3.88;;;5.60;1.00;;;;;;7377921;19;20017;-70
2024/01/06 10:21:10;;;;;;;6.00;3.95;;;5.60;1.00;;;;;;7380668;19;20010;-69
2024/01/06 10:23:41;;;;;;;5.88;3.70;;;5.60;1.00;;;;;;7379092;19;20018;-69
2024/01/06 10:26:15;;;;;;;4.45;3.67;;;5.60;1.00;;;;;;7355670;19;20532;-70
2024/01/06 10:28:46;;;;;;;;;;;5.60;1.00;;;;;;7371220;19;20021;-69
2024/01/06 10:31:20;;;;;;;3.67;3.20;;;5.60;1.00;;;;;;7370154;19;19970;-70
2024/01/06 10:33:51;;;;;;;7.07;4.00;;;5.60;1.00;;;;;;7370779;19;20018;-71
2024/01/06 10:36:22;;;;;;;4.60;3.75;;;5.70;1.00;;;;;;7368551;19;20031;-70
2024/01/06 10:38:55;;;;;;;4.57;3.63;;;5.60;1.00;;;;;;7365095;19;20006;-70
2024/01/06 10:41:29;;;;;;;4.43;4.03;;;5.60;1.00;;;;;;7373297;19;20014;-69
2024/01/06 10:44:02;;;;;;;7.05;4.18;;;5.70;1.00;;;;;;7377545;19;20026;-70
2024/01/06 10:46:34;;;;;;;7.57;4.03;;;5.60;1.00;;;;;;7372923;19;20065;-69
2024/01/06 10:49:05;;;;;;;5.18;3.80;;;5.70;1.00;;;;;;7377803;19;20015;-69
2024/01/06 10:51:38;;;;;;;6.22;4.50;;;5.70;1.00;;;;;;7377266;19;20006;-70
2024/01/06 10:54:10;;;;;;;6.88;4.90;;;5.70;1.00;;;;;;7378072;19;20011;-69
2024/01/06 10:56:46;;;;;;;6.57;4.68;;;5.70;1.00;;;;;;7377516;19;20018;-69
2024/01/06 10:59:17;;;;;;;5.60;4.55;;;5.60;1.00;;;;;;7377916;19;20347;-70
2024/01/06 11:01:49;;;;;;;6.00;4.70;;;5.70;1.00;;;;;;7377683;19;20014;-69
2024/01/06 11:04:19;;;;;;;6.22;4.97;;;5.60;1.00;;;;;;7378658;19;20010;-69
2024/01/06 11:06:50;;;;;;;5.75;4.85;;;5.60;1.00;;;;;;7379826;19;20487;-69
2024/01/06 11:09:25;;;;;;;8.27;6.07;;;5.60;1.00;;;;;;7377516;19;20039;-70
2024/01/06 11:11:58;;;;;;;8.20;5.45;;;5.70;1.00;;;;;;7377444;19;20625;-70
2024/01/06 11:14:33;;;;;;;7.30;6.10;;;5.60;1.00;;;;;;7373976;19;20017;-69
2024/01/06 11:17:02;;;;;;;;;;;5.60;1.00;;;;;;7373320;19;20010;-69
2024/01/06 11:19:47;;;;;;;7.50;5.75;;;5.60;1.00;;;;;;7376646;19;19915;-72
2024/01/06 11:22:31;;;;;;;9.55;6.32;;;5.60;1.00;;;;;;7376400;19;20019;-69
2024/01/06 11:25:07;;;;;;;8.25;5.53;;;5.70;1.00;;;;;;7374799;19;20006;-71
2024/01/06 11:27:40;;;;;;;9.57;5.97;;;5.70;1.00;;;;;;7375299;19;20006;-70
2024/01/06 11:30:21;;;;;;;5.93;5.32;;;5.70;1.00;;;;;;7376296;19;20039;-69
2024/01/06 11:32:53;;;;;;;6.28;5.38;;;5.60;1.00;;;;;;7378185;19;20034;-69
2024/01/06 11:35:24;;;;;;;5.50;4.55;;;5.60;1.00;;;;;;7377249;19;20351;-69
2024/01/06 11:37:59;;;;;;;6.38;5.32;;;5.60;1.00;;;;;;7377738;19;20420;-69
2024/01/06 11:40:37;;;;;;;7.00;5.30;;;5.70;1.00;;;;;;7377009;19;20010;-70
2024/01/06 11:43:11;;;;;;;7.80;4.90;;;5.60;1.00;;;;;;7376664;19;20035;-69
2024/01/06 11:45:43;;;;;;;;;;;5.40;1.00;;;;;;7376933;19;20030;-70
2024/01/06 11:48:14;;;;;;;7.70;5.07;;;5.50;1.00;;;;;;7376281;19;19918;-69
2024/01/06 11:50:45;;;;;;;7.00;5.45;;;5.60;1.00;;;;;;7377509;19;20684;-69
2024/01/06 11:53:15;;;;;;;9.45;5.82;;;5.60;1.00;;;;;;7376312;19;20871;-70
2024/01/06 11:55:45;;;;;;;6.82;5.57;;;5.80;1.00;;;;;;7377359;19;20015;-69
2024/01/06 11:58:19;;;;;;;6.85;5.55;;;5.60;1.00;;;;;;7375412;19;20014;-70
2024/01/06 12:00:58;;;;;;;8.40;5.80;;;5.70;1.00;;;;;;7370759;19;20014;-71
2024/01/06 12:03:30;;;;;;;7.13;5.35;;;5.80;1.00;;;;;;7376994;19;20011;-70
2024/01/06 12:06:04;;;;;;;8.20;5.70;;;5.90;1.00;;;;;;7372783;19;20025;-69
2024/01/06 12:08:34;;;;;;;6.38;5.55;;;5.70;1.00;;;;;;7373145;19;20704;-69
2024/01/06 12:11:05;;;;;;;8.02;5.35;;;5.60;1.00;;;;;;7374606;19;20020;-69
2024/01/06 12:13:38;;;;;;;8.48;5.75;;;5.50;1.00;;;;;;7369696;19;20363;-69
2024/01/06 12:16:09;;;;;;;8.77;6.60;;;5.60;1.00;;;;;;7374615;19;20011;-70
2024/01/06 12:18:39;;;;;;;8.15;6.28;;;5.60;1.00;;;;;;7375142;19;20010;-69
2024/01/06 12:21:10;;;;;;;7.32;5.97;;;5.60;1.00;;;;;;7373321;19;20364;-69
2024/01/06 12:23:40;;;;;;;9.27;6.60;;;5.70;1.00;;;;;;7375519;19;20006;-69
2024/01/06 12:26:10;;;;;;;9.57;7.00;;;5.70;1.00;;;;;;7375252;19;20015;-70
2024/01/06 12:28:43;;;;;;;8.32;6.40;;;5.60;1.00;;;;;;7373586;19;20010;-68
2024/01/06 12:31:13;;;;;;;8.48;5.72;;;5.50;1.00;;;;;;7376174;19;20382;-69
2024/01/06 12:33:43;;;;;;;8.40;5.78;;;5.50;1.00;;;;;;7376168;19;20021;-69
2024/01/06 12:36:13;;;;;;;8.50;5.78;;;5.50;1.00;;;;;;7376853;19;20027;-68
2024/01/06 12:38:56;;;;;;;8.00;5.95;;;5.50;1.00;;;;;;7375777;19;20136;-69
2024/01/06 12:41:26;;;;;;;7.45;6.13;;;5.50;1.00;;;;;;7378087;19;20011;-70
2024/01/06 12:43:59;;;;;;;10.07;6.45;;;5.60;1.00;;;;;;7377803;19;20362;-70
2024/01/06 12:46:29;;;;;;;8.77;6.47;;;5.50;1.00;;;;;;7374388;19;20371;-69
2024/01/06 12:48:59;;;;;;;10.15;6.47;;;5.60;1.00;;;;;;7376469;19;20007;-69
2024/01/06 12:51:29;;;;;;;8.95;6.57;;;5.50;1.00;;;;;;7378237;19;20419;-69
2024/01/06 12:54:00;;;;;;;10.90;6.85;;;5.50;1.00;;;;;;7373494;19;20006;-69
2024/01/06 12:56:30;;;;;;;10.88;7.28;;;5.60;1.00;;;;;;7373502;19;20356;-69
2024/01/06 12:59:03;;;;;;;12.02;7.45;;;5.60;1.00;;;;;;7376331;19;20018;-70
2024/01/06 13:01:33;;;;;;;8.43;6.82;;;5.60;1.00;;;;;;7369720;19;20444;-69
2024/01/06 13:04:03;;;;;;;12.98;8.10;;;5.50;1.00;;;;;;7377761;19;20011;-69
2024/01/06 13:06:34;;;;;;;9.73;7.43;;;5.50;1.00;;;;;;7387509;19;20355;-69
2024/01/06 13:09:06;;;;;;;9.68;7.85;;;5.50;1.00;;;;;;7382942;19;20037;-70
2024/01/06 13:11:37;;;;;;;10.77;7.70;;;5.40;1.00;;;;;;7381225;19;20007;-70
2024/01/06 13:14:10;;;;;;;11.95;7.95;;;5.40;1.00;;;;;;7380666;19;20109;-70
2024/01/06 13:16:40;;;;;;;11.02;7.57;;;5.40;1.00;;;;;;7378131;19;20010;-69
2024/01/06 13:19:10;;;;;;;11.05;7.80;;;5.50;1.00;;;;;;7381368;19;20064;-69
2024/01/06 13:21:41;;;;;;;9.45;7.40;;;5.40;1.00;;;;;;7382837;19;20035;-69
2024/01/06 13:24:12;;;;;;;11.13;8.50;;;5.30;6.50;;;;;;7381647;19;20031;-69
2024/01/06 13:26:42;;;;;;;9.88;7.65;;;5.30;8.90;;;;;;7381237;19;20089;-69
2024/01/06 13:29:15;;;;;;;12.20;7.50;;;5.30;10.10;;;;;;7373313;19;20010;-70